sensor_id;sensor_type;location;lat;lon;timestamp;P1;durP1;ratioP1;P2;durP2;ratioP2
40588;SDS011;26297;49.450;6.640;2023-04-08T00:02:20;3.38;;;2.85;;
40588;SDS011;26297;49.450;6.640;2023-04-08T00:05:26;3.58;;;2.50;;
40588;SDS011;26297;49.450;6.640;2023-04-08T00:08:47;3.45;;;2.80;;
40588;SDS011;26297;49.450;6.640;2023-04-08T01:57:40;4.03;;;2.88;;
40588;SDS011;26297;49.450;6.640;2023-04-08T02:01:07;4.05;;;2.75;;
40588;SDS011;26297;49.450;6.640;2023-04-08T02:04:14;4.05;;;2.20;;
40588;SDS011;26297;49.450;6.640;2023-04-08T02:07:21;2.70;;;2.25;;
40588;SDS011;26297;49.450;6.640;2023-04-08T02:10:24;3.58;;;2.15;;
40588;SDS011;26297;49.450;6.640;2023-04-08T02:13:28;2.83;;;2.53;;
40588;SDS011;26297;49.450;6.640;2023-04-08T02:16:39;4.10;;;2.55;;
40588;SDS011;26297;49.450;6.640;2023-04-08T02:19:56;4.20;;;2.40;;
40588;SDS011;26297;49.450;6.640;2023-04-08T02:26:23;3.00;;;2.33;;
40588;SDS011;26297;49.450;6.640;2023-04-08T02:29:30;2.90;;;2.53;;
40588;SDS011;26297;49.450;6.640;2023-04-08T02:32:38;4.03;;;2.50;;
40588;SDS011;26297;49.450;6.640;2023-04-08T02:35:52;4.88;;;2.83;;
40588;SDS011;26297;49.450;6.640;2023-04-08T02:39:06;4.70;;;2.75;;
40588;SDS011;26297;49.450;6.640;2023-04-08T02:42:15;2.53;;;2.33;;
40588;SDS011;26297;49.450;6.640;2023-04-08T02:45:18;3.00;;;2.55;;
40588;SDS011;26297;49.450;6.640;2023-04-08T02:48:21;3.78;;;2.53;;
40588;SDS011;26297;49.450;6.640;2023-04-08T02:51:31;4.03;;;2.05;;
40588;SDS011;26297;49.450;6.640;2023-04-08T02:54:34;4.13;;;2.70;;
40588;SDS011;26297;49.450;6.640;2023-04-08T02:57:39;4.57;;;2.45;;
40588;SDS011;26297;49.450;6.640;2023-04-08T03:00:48;3.05;;;2.72;;
40588;SDS011;26297;49.450;6.640;2023-04-08T03:04:00;3.50;;;2.75;;
40588;SDS011;26297;49.450;6.640;2023-04-08T03:07:12;3.88;;;2.65;;
40588;SDS011;26297;49.450;6.640;2023-04-08T03:10:18;3.10;;;2.80;;
40588;SDS011;26297;49.450;6.640;2023-04-08T03:13:21;4.50;;;3.03;;
40588;SDS011;26297;49.450;6.640;2023-04-08T03:16:24;4.05;;;2.67;;
40588;SDS011;26297;49.450;6.640;2023-04-08T03:19:28;2.65;;;2.40;;
40588;SDS011;26297;49.450;6.640;2023-04-08T03:22:35;4.97;;;3.15;;
40588;SDS011;26297;49.450;6.640;2023-04-08T03:25:44;3.83;;;2.80;;
40588;SDS011;26297;49.450;6.640;2023-04-08T03:28:53;3.65;;;2.72;;
40588;SDS011;26297;49.450;6.640;2023-04-08T03:31:57;4.75;;;2.72;;
40588;SDS011;26297;49.450;6.640;2023-04-08T03:35:00;4.78;;;2.92;;
40588;SDS011;26297;49.450;6.640;2023-04-08T03:38:03;3.90;;;3.00;;
40588;SDS011;26297;49.450;6.640;2023-04-08T03:41:07;3.53;;;2.90;;
40588;SDS011;26297;49.450;6.640;2023-04-08T03:44:12;3.60;;;3.15;;
40588;SDS011;26297;49.450;6.640;2023-04-08T03:47:18;4.03;;;3.00;;
40588;SDS011;26297;49.450;6.640;2023-04-08T03:50:21;3.17;;;2.33;;
40588;SDS011;26297;49.450;6.640;2023-04-08T03:53:24;6.93;;;3.08;;
40588;SDS011;26297;49.450;6.640;2023-04-08T03:56:29;5.43;;;3.88;;
40588;SDS011;26297;49.450;6.640;2023-04-08T03:59:32;4.72;;;3.25;;
40588;SDS011;26297;49.450;6.640;2023-04-08T04:02:37;5.13;;;3.30;;
40588;SDS011;26297;49.450;6.640;2023-04-08T04:05:40;3.60;;;3.05;;
40588;SDS011;26297;49.450;6.640;2023-04-08T04:08:44;5.30;;;3.00;;
40588;SDS011;26297;49.450;6.640;2023-04-08T04:11:47;4.80;;;4.03;;
40588;SDS011;26297;49.450;6.640;2023-04-08T04:14:51;7.47;;;3.88;;
40588;SDS011;26297;49.450;6.640;2023-04-08T04:17:57;5.88;;;3.67;;
40588;SDS011;26297;49.450;6.640;2023-04-08T04:21:04;5.32;;;4.82;;
40588;SDS011;26297;49.450;6.640;2023-04-08T04:24:09;4.18;;;3.03;;
40588;SDS011;26297;49.450;6.640;2023-04-08T04:27:14;3.42;;;3.10;;
40588;SDS011;26297;49.450;6.640;2023-04-08T04:30:23;4.00;;;3.17;;
40588;SDS011;26297;49.450;6.640;2023-04-08T04:33:27;4.75;;;3.20;;
40588;SDS011;26297;49.450;6.640;2023-04-08T04:36:31;5.45;;;3.00;;
40588;SDS011;26297;49.450;6.640;2023-04-08T04:39:34;4.20;;;3.30;;
40588;SDS011;26297;49.450;6.640;2023-04-08T04:42:37;4.55;;;3.17;;
40588;SDS011;26297;49.450;6.640;2023-04-08T04:45:44;3.70;;;3.13;;
40588;SDS011;26297;49.450;6.640;2023-04-08T04:48:50;3.70;;;3.10;;
40588;SDS011;26297;49.450;6.640;2023-04-08T04:51:59;4.40;;;2.85;;
40588;SDS011;26297;49.450;6.640;2023-04-08T04:55:05;3.63;;;2.75;;
40588;SDS011;26297;49.450;6.640;2023-04-08T04:58:16;3.45;;;2.85;;
40588;SDS011;26297;49.450;6.640;2023-04-08T05:01:26;3.17;;;2.35;;
40588;SDS011;26297;49.450;6.640;2023-04-08T05:04:44;3.92;;;2.33;;
40588;SDS011;26297;49.450;6.640;2023-04-08T05:07:49;4.88;;;2.58;;
40588;SDS011;26297;49.450;6.640;2023-04-08T05:10:58;3.88;;;2.30;;
40588;SDS011;26297;49.450;6.640;2023-04-08T05:14:33;2.80;;;2.15;;
40588;SDS011;26297;49.450;6.640;2023-04-08T05:17:41;4.18;;;2.03;;
40588;SDS011;26297;49.450;6.640;2023-04-08T05:20:45;2.88;;;2.33;;
40588;SDS011;26297;49.450;6.640;2023-04-08T05:24:03;4.05;;;2.60;;
40588;SDS011;26297;49.450;6.640;2023-04-08T05:27:29;4.15;;;2.80;;
40588;SDS011;26297;49.450;6.640;2023-04-08T05:30:35;3.10;;;2.80;;
40588;SDS011;26297;49.450;6.640;2023-04-08T05:34:00;3.85;;;3.35;;
40588;SDS011;26297;49.450;6.640;2023-04-08T05:37:03;6.65;;;3.47;;
40588;SDS011;26297;49.450;6.640;2023-04-08T05:40:16;4.22;;;3.20;;
40588;SDS011;26297;49.450;6.640;2023-04-08T05:43:20;5.68;;;3.28;;
40588;SDS011;26297;49.450;6.640;2023-04-08T05:46:39;7.37;;;3.20;;
40588;SDS011;26297;49.450;6.640;2023-04-08T05:49:55;4.05;;;3.08;;
40588;SDS011;26297;49.450;6.640;2023-04-08T05:53:00;6.57;;;3.85;;
40588;SDS011;26297;49.450;6.640;2023-04-08T05:56:16;4.45;;;3.28;;
40588;SDS011;26297;49.450;6.640;2023-04-08T05:59:23;5.03;;;3.60;;
40588;SDS011;26297;49.450;6.640;2023-04-08T06:02:29;4.53;;;3.42;;
40588;SDS011;26297;49.450;6.640;2023-04-08T06:05:36;5.85;;;3.75;;
40588;SDS011;26297;49.450;6.640;2023-04-08T06:08:39;5.82;;;4.00;;
40588;SDS011;26297;49.450;6.640;2023-04-08T06:11:43;8.23;;;5.97;;
40588;SDS011;26297;49.450;6.640;2023-04-08T06:14:52;7.32;;;5.32;;
40588;SDS011;26297;49.450;6.640;2023-04-08T06:17:57;7.32;;;4.63;;
40588;SDS011;26297;49.450;6.640;2023-04-08T06:21:00;7.72;;;5.10;;
40588;SDS011;26297;49.450;6.640;2023-04-08T06:24:06;7.63;;;4.57;;
40588;SDS011;26297;49.450;6.640;2023-04-08T06:27:12;6.20;;;4.93;;
40588;SDS011;26297;49.450;6.640;2023-04-08T06:30:19;5.97;;;4.43;;
40588;SDS011;26297;49.450;6.640;2023-04-08T06:33:44;7.28;;;4.35;;
40588;SDS011;26297;49.450;6.640;2023-04-08T06:36:48;7.72;;;4.53;;
40588;SDS011;26297;49.450;6.640;2023-04-08T06:39:56;6.47;;;4.55;;
40588;SDS011;26297;49.450;6.640;2023-04-08T06:42:59;7.60;;;4.70;;
40588;SDS011;26297;49.450;6.640;2023-04-08T06:46:08;6.07;;;4.45;;
40588;SDS011;26297;49.450;6.640;2023-04-08T06:49:14;8.02;;;5.15;;
40588;SDS011;26297;49.450;6.640;2023-04-08T06:52:24;8.80;;;5.22;;
40588;SDS011;26297;49.450;6.640;2023-04-08T06:55:37;8.52;;;5.57;;
40588;SDS011;26297;49.450;6.640;2023-04-08T06:58:43;10.95;;;5.60;;
40588;SDS011;26297;49.450;6.640;2023-04-08T07:01:45;7.90;;;5.25;;
40588;SDS011;26297;49.450;6.640;2023-04-08T07:04:52;7.82;;;5.80;;
40588;SDS011;26297;49.450;6.640;2023-04-08T07:08:13;9.00;;;6.35;;
40588;SDS011;26297;49.450;6.640;2023-04-08T07:11:23;9.82;;;5.72;;
40588;SDS011;26297;49.450;6.640;2023-04-08T07:14:37;11.65;;;5.95;;
40588;SDS011;26297;49.450;6.640;2023-04-08T07:17:46;11.82;;;6.88;;
40588;SDS011;26297;49.450;6.640;2023-04-08T07:20:52;12.75;;;7.05;;
40588;SDS011;26297;49.450;6.640;2023-04-08T07:23:55;11.52;;;6.10;;
40588;SDS011;26297;49.450;6.640;2023-04-08T07:26:59;8.82;;;5.88;;
40588;SDS011;26297;49.450;6.640;2023-04-08T07:30:03;8.13;;;5.45;;
40588;SDS011;26297;49.450;6.640;2023-04-08T07:33:06;8.40;;;5.82;;
40588;SDS011;26297;49.450;6.640;2023-04-08T07:36:13;7.50;;;5.32;;
40588;SDS011;26297;49.450;6.640;2023-04-08T07:39:19;11.18;;;5.82;;
40588;SDS011;26297;49.450;6.640;2023-04-08T07:42:25;8.70;;;5.70;;
40588;SDS011;26297;49.450;6.640;2023-04-08T07:45:29;8.20;;;5.40;;
40588;SDS011;26297;49.450;6.640;2023-04-08T07:48:36;10.27;;;5.93;;
40588;SDS011;26297;49.450;6.640;2023-04-08T07:51:40;9.25;;;6.18;;
40588;SDS011;26297;49.450;6.640;2023-04-08T07:54:42;10.10;;;6.43;;
40588;SDS011;26297;49.450;6.640;2023-04-08T08:01:26;9.50;;;5.53;;
40588;SDS011;26297;49.450;6.640;2023-04-08T08:04:32;10.18;;;6.13;;
40588;SDS011;26297;49.450;6.640;2023-04-08T08:07:46;10.85;;;6.40;;
40588;SDS011;26297;49.450;6.640;2023-04-08T08:10:55;10.02;;;6.07;;
40588;SDS011;26297;49.450;6.640;2023-04-08T08:13:58;10.02;;;6.00;;
40588;SDS011;26297;49.450;6.640;2023-04-08T08:17:09;10.98;;;7.28;;
40588;SDS011;26297;49.450;6.640;2023-04-08T08:20:20;10.10;;;5.03;;
40588;SDS011;26297;49.450;6.640;2023-04-08T08:23:23;9.98;;;6.25;;
40588;SDS011;26297;49.450;6.640;2023-04-08T08:26:35;12.15;;;6.80;;
40588;SDS011;26297;49.450;6.640;2023-04-08T08:29:46;12.27;;;5.65;;
40588;SDS011;26297;49.450;6.640;2023-04-08T08:32:57;7.43;;;4.82;;
40588;SDS011;26297;49.450;6.640;2023-04-08T08:36:02;10.02;;;5.15;;
40588;SDS011;26297;49.450;6.640;2023-04-08T08:39:06;9.40;;;6.38;;
40588;SDS011;26297;49.450;6.640;2023-04-08T08:46:05;9.85;;;5.70;;
40588;SDS011;26297;49.450;6.640;2023-04-08T08:49:17;9.18;;;6.22;;
40588;SDS011;26297;49.450;6.640;2023-04-08T08:52:30;11.50;;;5.65;;
40588;SDS011;26297;49.450;6.640;2023-04-08T08:55:42;9.43;;;5.07;;
40588;SDS011;26297;49.450;6.640;2023-04-08T08:58:45;9.40;;;5.72;;
40588;SDS011;26297;49.450;6.640;2023-04-08T09:01:48;10.52;;;6.57;;
40588;SDS011;26297;49.450;6.640;2023-04-08T09:04:55;11.80;;;6.10;;
40588;SDS011;26297;49.450;6.640;2023-04-08T09:08:02;8.32;;;5.40;;
40588;SDS011;26297;49.450;6.640;2023-04-08T09:11:13;8.40;;;5.53;;
40588;SDS011;26297;49.450;6.640;2023-04-08T09:14:21;8.60;;;4.30;;
40588;SDS011;26297;49.450;6.640;2023-04-08T09:17:33;7.18;;;4.70;;
40588;SDS011;26297;49.450;6.640;2023-04-08T09:20:50;8.30;;;4.75;;
40588;SDS011;26297;49.450;6.640;2023-04-08T09:23:54;10.68;;;5.85;;
40588;SDS011;26297;49.450;6.640;2023-04-08T09:26:57;9.00;;;5.07;;
40588;SDS011;26297;49.450;6.640;2023-04-08T09:30:13;6.35;;;4.63;;
40588;SDS011;26297;49.450;6.640;2023-04-08T09:33:19;6.47;;;4.55;;
40588;SDS011;26297;49.450;6.640;2023-04-08T09:36:45;7.97;;;5.25;;
40588;SDS011;26297;49.450;6.640;2023-04-08T09:39:50;6.07;;;3.90;;
40588;SDS011;26297;49.450;6.640;2023-04-08T09:43:05;7.13;;;4.57;;
40588;SDS011;26297;49.450;6.640;2023-04-08T09:46:32;9.15;;;5.28;;
40588;SDS011;26297;49.450;6.640;2023-04-08T09:52:52;5.95;;;4.25;;
40588;SDS011;26297;49.450;6.640;2023-04-08T09:59:13;7.95;;;5.32;;
40588;SDS011;26297;49.450;6.640;2023-04-08T10:02:24;5.50;;;3.90;;
40588;SDS011;26297;49.450;6.640;2023-04-08T10:05:39;6.45;;;4.85;;
40588;SDS011;26297;49.450;6.640;2023-04-08T10:08:43;8.50;;;4.22;;
40588;SDS011;26297;49.450;6.640;2023-04-08T10:11:47;6.45;;;4.60;;
40588;SDS011;26297;49.450;6.640;2023-04-08T10:18:41;7.70;;;5.10;;
40588;SDS011;26297;49.450;6.640;2023-04-08T10:21:46;9.23;;;4.72;;
40588;SDS011;26297;49.450;6.640;2023-04-08T10:28:50;8.02;;;5.18;;
40588;SDS011;26297;49.450;6.640;2023-04-08T10:31:53;6.25;;;4.15;;
40588;SDS011;26297;49.450;6.640;2023-04-08T10:35:00;8.15;;;5.63;;
40588;SDS011;26297;49.450;6.640;2023-04-08T10:38:04;7.00;;;5.13;;
40588;SDS011;26297;49.450;6.640;2023-04-08T10:41:09;9.45;;;5.97;;
40588;SDS011;26297;49.450;6.640;2023-04-08T10:47:38;10.30;;;6.38;;
40588;SDS011;26297;49.450;6.640;2023-04-08T10:51:03;8.73;;;6.40;;
40588;SDS011;26297;49.450;6.640;2023-04-08T10:54:08;6.75;;;5.68;;
40588;SDS011;26297;49.450;6.640;2023-04-08T10:57:22;7.68;;;5.07;;
40588;SDS011;26297;49.450;6.640;2023-04-08T11:00:37;9.15;;;5.97;;
40588;SDS011;26297;49.450;6.640;2023-04-08T11:03:41;8.38;;;5.47;;
40588;SDS011;26297;49.450;6.640;2023-04-08T11:06:45;7.07;;;4.13;;
40588;SDS011;26297;49.450;6.640;2023-04-08T11:09:49;11.10;;;5.82;;
40588;SDS011;26297;49.450;6.640;2023-04-08T11:12:52;6.95;;;5.20;;
40588;SDS011;26297;49.450;6.640;2023-04-08T11:15:57;11.07;;;6.40;;
40588;SDS011;26297;49.450;6.640;2023-04-08T11:22:38;7.32;;;5.43;;
40588;SDS011;26297;49.450;6.640;2023-04-08T11:25:42;7.40;;;5.68;;
40588;SDS011;26297;49.450;6.640;2023-04-08T11:28:46;8.93;;;5.78;;
40588;SDS011;26297;49.450;6.640;2023-04-08T11:31:52;7.25;;;5.15;;
40588;SDS011;26297;49.450;6.640;2023-04-08T11:34:58;5.75;;;5.10;;
40588;SDS011;26297;49.450;6.640;2023-04-08T11:38:07;6.57;;;4.60;;
40588;SDS011;26297;49.450;6.640;2023-04-08T11:41:10;7.90;;;5.07;;
40588;SDS011;26297;49.450;6.640;2023-04-08T11:44:14;10.50;;;5.70;;
40588;SDS011;26297;49.450;6.640;2023-04-08T11:47:17;6.93;;;4.88;;
40588;SDS011;26297;49.450;6.640;2023-04-08T11:50:23;7.85;;;5.72;;
40588;SDS011;26297;49.450;6.640;2023-04-08T11:53:27;7.60;;;5.07;;
40588;SDS011;26297;49.450;6.640;2023-04-08T11:56:42;5.90;;;4.80;;
40588;SDS011;26297;49.450;6.640;2023-04-08T11:59:48;7.15;;;4.72;;
40588;SDS011;26297;49.450;6.640;2023-04-08T12:02:51;8.07;;;5.43;;
40588;SDS011;26297;49.450;6.640;2023-04-08T12:05:54;7.22;;;5.50;;
40588;SDS011;26297;49.450;6.640;2023-04-08T12:08:57;6.30;;;4.55;;
40588;SDS011;26297;49.450;6.640;2023-04-08T12:12:01;5.40;;;4.35;;
40588;SDS011;26297;49.450;6.640;2023-04-08T12:15:05;5.93;;;4.43;;
40588;SDS011;26297;49.450;6.640;2023-04-08T12:22:32;7.35;;;4.60;;
40588;SDS011;26297;49.450;6.640;2023-04-08T12:25:35;5.90;;;4.18;;
40588;SDS011;26297;49.450;6.640;2023-04-08T12:28:38;7.30;;;4.65;;
40588;SDS011;26297;49.450;6.640;2023-04-08T12:31:42;7.72;;;4.88;;
40588;SDS011;26297;49.450;6.640;2023-04-08T12:34:45;6.15;;;4.53;;
40588;SDS011;26297;49.450;6.640;2023-04-08T12:37:52;5.47;;;4.07;;
40588;SDS011;26297;49.450;6.640;2023-04-08T12:41:01;5.57;;;4.07;;
40588;SDS011;26297;49.450;6.640;2023-04-08T13:41:10;6.13;;;4.37;;
40588;SDS011;26297;49.450;6.640;2023-04-08T13:44:13;4.05;;;2.75;;
40588;SDS011;26297;49.450;6.640;2023-04-08T14:08:55;4.03;;;3.27;;
40588;SDS011;26297;49.450;6.640;2023-04-08T14:11:59;3.40;;;3.10;;
40588;SDS011;26297;49.450;6.640;2023-04-08T14:15:02;5.65;;;4.20;;
40588;SDS011;26297;49.450;6.640;2023-04-08T14:18:09;3.58;;;3.15;;
40588;SDS011;26297;49.450;6.640;2023-04-08T14:24:58;4.30;;;3.35;;
40588;SDS011;26297;49.450;6.640;2023-04-08T14:28:58;5.00;;;3.53;;
40588;SDS011;26297;49.450;6.640;2023-04-08T14:52:54;6.28;;;4.05;;
40588;SDS011;26297;49.450;6.640;2023-04-08T14:59:42;6.32;;;5.05;;
40588;SDS011;26297;49.450;6.640;2023-04-08T15:02:46;6.70;;;4.72;;
40588;SDS011;26297;49.450;6.640;2023-04-08T15:05:49;7.70;;;6.30;;
40588;SDS011;26297;49.450;6.640;2023-04-08T15:08:52;6.85;;;5.68;;
40588;SDS011;26297;49.450;6.640;2023-04-08T15:11:59;8.60;;;5.20;;
40588;SDS011;26297;49.450;6.640;2023-04-08T15:15:03;6.45;;;4.60;;
40588;SDS011;26297;49.450;6.640;2023-04-08T15:18:10;6.70;;;4.05;;
40588;SDS011;26297;49.450;6.640;2023-04-08T15:21:13;8.88;;;5.50;;
40588;SDS011;26297;49.450;6.640;2023-04-08T15:24:16;8.75;;;6.03;;
40588;SDS011;26297;49.450;6.640;2023-04-08T15:27:20;8.30;;;5.57;;
40588;SDS011;26297;49.450;6.640;2023-04-08T15:30:24;7.45;;;4.95;;
40588;SDS011;26297;49.450;6.640;2023-04-08T15:33:39;6.00;;;4.82;;
40588;SDS011;26297;49.450;6.640;2023-04-08T15:36:45;5.70;;;4.70;;
40588;SDS011;26297;49.450;6.640;2023-04-08T15:39:49;7.00;;;5.43;;
40588;SDS011;26297;49.450;6.640;2023-04-08T15:43:05;7.93;;;4.75;;
40588;SDS011;26297;49.450;6.640;2023-04-08T15:46:08;7.00;;;5.38;;
40588;SDS011;26297;49.450;6.640;2023-04-08T15:49:12;8.15;;;5.78;;
40588;SDS011;26297;49.450;6.640;2023-04-08T15:52:16;8.20;;;4.55;;
40588;SDS011;26297;49.450;6.640;2023-04-08T17:44:32;3.42;;;2.97;;
40588;SDS011;26297;49.450;6.640;2023-04-08T17:47:47;6.10;;;2.50;;
40588;SDS011;26297;49.450;6.640;2023-04-08T17:51:23;3.85;;;2.90;;
40588;SDS011;26297;49.450;6.640;2023-04-08T17:54:31;2.80;;;2.55;;
40588;SDS011;26297;49.450;6.640;2023-04-08T17:57:58;3.92;;;2.78;;
40588;SDS011;26297;49.450;6.640;2023-04-08T18:01:06;4.55;;;2.40;;
40588;SDS011;26297;49.450;6.640;2023-04-08T18:08:23;3.65;;;2.80;;
40588;SDS011;26297;49.450;6.640;2023-04-08T18:11:38;3.97;;;2.45;;
40588;SDS011;26297;49.450;6.640;2023-04-08T18:15:14;3.30;;;2.45;;
40588;SDS011;26297;49.450;6.640;2023-04-08T18:18:18;4.65;;;3.33;;
40588;SDS011;26297;49.450;6.640;2023-04-08T18:21:21;3.88;;;2.65;;
40588;SDS011;26297;49.450;6.640;2023-04-08T18:24:24;4.47;;;2.35;;
40588;SDS011;26297;49.450;6.640;2023-04-08T18:27:28;3.08;;;2.65;;
40588;SDS011;26297;49.450;6.640;2023-04-08T18:30:31;4.07;;;2.50;;
40588;SDS011;26297;49.450;6.640;2023-04-08T18:33:34;4.07;;;2.70;;
40588;SDS011;26297;49.450;6.640;2023-04-08T18:36:40;4.70;;;3.03;;
40588;SDS011;26297;49.450;6.640;2023-04-08T18:39:43;2.90;;;2.53;;
40588;SDS011;26297;49.450;6.640;2023-04-08T18:42:46;4.68;;;2.58;;
40588;SDS011;26297;49.450;6.640;2023-04-08T18:45:49;3.00;;;2.55;;
40588;SDS011;26297;49.450;6.640;2023-04-08T18:48:52;4.13;;;2.58;;
40588;SDS011;26297;49.450;6.640;2023-04-08T18:51:55;4.07;;;2.83;;
40588;SDS011;26297;49.450;6.640;2023-04-08T18:54:58;3.67;;;2.90;;
40588;SDS011;26297;49.450;6.640;2023-04-08T18:58:02;3.60;;;2.70;;
40588;SDS011;26297;49.450;6.640;2023-04-08T19:01:05;2.90;;;2.63;;
40588;SDS011;26297;49.450;6.640;2023-04-08T19:04:09;4.25;;;2.90;;
40588;SDS011;26297;49.450;6.640;2023-04-08T19:07:12;3.83;;;2.97;;
40588;SDS011;26297;49.450;6.640;2023-04-08T19:10:19;3.47;;;2.55;;
40588;SDS011;26297;49.450;6.640;2023-04-08T19:13:32;3.65;;;2.75;;
40588;SDS011;26297;49.450;6.640;2023-04-08T19:16:38;4.13;;;2.58;;
40588;SDS011;26297;49.450;6.640;2023-04-08T19:19:42;4.57;;;2.70;;
40588;SDS011;26297;49.450;6.640;2023-04-08T19:22:45;4.28;;;3.33;;
40588;SDS011;26297;49.450;6.640;2023-04-08T19:25:52;4.75;;;3.90;;
40588;SDS011;26297;49.450;6.640;2023-04-08T19:28:56;3.90;;;3.42;;
40588;SDS011;26297;49.450;6.640;2023-04-08T19:31:59;5.95;;;3.97;;
40588;SDS011;26297;49.450;6.640;2023-04-08T19:35:04;6.10;;;4.05;;
40588;SDS011;26297;49.450;6.640;2023-04-08T19:38:08;4.93;;;3.97;;
40588;SDS011;26297;49.450;6.640;2023-04-08T19:41:13;6.75;;;3.95;;
40588;SDS011;26297;49.450;6.640;2023-04-08T19:44:17;4.90;;;3.92;;
40588;SDS011;26297;49.450;6.640;2023-04-08T19:47:20;6.90;;;3.50;;
40588;SDS011;26297;49.450;6.640;2023-04-08T19:50:23;4.63;;;3.67;;
40588;SDS011;26297;49.450;6.640;2023-04-08T19:53:29;3.67;;;3.03;;
40588;SDS011;26297;49.450;6.640;2023-04-08T19:56:36;7.97;;;3.72;;
40588;SDS011;26297;49.450;6.640;2023-04-08T20:20:39;6.03;;;3.53;;
40588;SDS011;26297;49.450;6.640;2023-04-08T20:23:50;4.07;;;3.45;;
40588;SDS011;26297;49.450;6.640;2023-04-08T20:26:53;5.03;;;3.53;;
40588;SDS011;26297;49.450;6.640;2023-04-08T20:30:00;3.90;;;3.50;;
40588;SDS011;26297;49.450;6.640;2023-04-08T20:33:04;4.97;;;3.92;;
40588;SDS011;26297;49.450;6.640;2023-04-08T20:36:07;6.82;;;3.67;;
40588;SDS011;26297;49.450;6.640;2023-04-08T20:39:21;6.85;;;4.07;;
40588;SDS011;26297;49.450;6.640;2023-04-08T20:42:31;5.80;;;4.18;;
